Time;durP1;ratioP1;P1;durP2;ratioP2;P2;SDS_P1;SDS_P2;PMS_P1;PMS_P2;Temp;Humidity;BMP_temperature;BMP_pressure;BME280_temperature;BME280_humidity;BME280_pressure;Samples;Min_cycle;Max_cycle;Signal;HPM_P1;HPM_P2
2023/01/22 00:01:28;;;;;;;;;;;18.80;33.90;;;;;;5051167;28;20394;-66
2023/01/22 00:03:54;;;;;;;;;;;18.70;34.00;;;;;;5046169;28;19943;-69
2023/01/22 00:06:20;;;;;;;;;;;18.50;34.00;;;;;;5034726;28;20295;-68
2023/01/22 00:08:47;;;;;;;;;;;18.50;34.30;;;;;;5041974;28;20064;-67
2023/01/22 00:11:16;;;;;;;;;;;18.30;34.40;;;;;;5032686;28;19982;-67
2023/01/22 00:13:41;;;;;;;;;;;18.20;34.60;;;;;;5046928;28;19936;-67
2023/01/22 00:16:08;;;;;;;;;;;18.00;34.60;;;;;;5031297;28;19921;-67
2023/01/22 00:18:34;;;;;;;;;;;17.90;34.80;;;;;;5049029;28;19932;-68
2023/01/22 00:21:00;;;;;;;;;;;17.80;35.00;;;;;;5049326;28;19924;-68
2023/01/22 00:23:25;;;;;;;;;;;17.60;35.00;;;;;;5049494;28;19929;-69
2023/01/22 00:26:10;;;;;;;;;;;17.50;35.20;;;;;;5050744;28;19920;-67
2023/01/22 00:28:36;;;;;;;;;;;17.40;35.30;;;;;;5021478;28;20288;-69
2023/01/22 00:31:02;;;;;;;;;;;17.30;35.60;;;;;;5042597;28;20384;-68
2023/01/22 00:33:28;;;;;;;;;;;17.20;35.60;;;;;;5049937;28;20303;-67
2023/01/22 00:35:54;;;;;;;;;;;17.10;35.80;;;;;;5050870;28;19925;-67
2023/01/22 00:38:19;;;;;;;;;;;17.00;35.90;;;;;;5032904;28;19990;-70
2023/01/22 00:40:45;;;;;;;;;;;17.00;36.00;;;;;;5052194;28;19920;-67
2023/01/22 00:43:10;;;;;;;;;;;16.80;36.00;;;;;;5025442;28;19925;-67
2023/01/22 00:45:38;;;;;;;;;;;16.70;36.20;;;;;;5049045;28;19921;-68
2023/01/22 00:48:04;;;;;;;;;;;16.70;36.30;;;;;;5047109;28;19929;-67
2023/01/22 00:50:30;;;;;;;;;;;16.60;36.40;;;;;;5031358;28;19983;-70
2023/01/22 00:52:56;;;;;;;;;;;16.50;36.40;;;;;;5038683;28;19971;-66
2023/01/22 00:55:21;;;;;;;;;;;16.50;36.60;;;;;;5050480;28;20044;-70
2023/01/22 00:57:47;;;;;;;;;;;16.40;36.60;;;;;;5028563;28;20842;-67
2023/01/22 01:00:13;;;;;;;;;;;16.40;36.70;;;;;;5030351;28;19971;-70
2023/01/22 01:05:28;;;;;;;;;;;16.20;36.90;;;;;;5030321;28;19996;-67
2023/01/22 01:07:54;;;;;;;;;;;16.20;37.00;;;;;;5030603;28;19928;-67
2023/01/22 01:10:19;;;;;;;;;;;16.10;37.00;;;;;;5028733;28;20020;-67
2023/01/22 01:12:45;;;;;;;;;;;16.00;37.00;;;;;;5023490;28;19921;-69
2023/01/22 01:15:11;;;;;;;;;;;16.00;37.20;;;;;;5039105;28;20287;-67
2023/01/22 01:17:36;;;;;;;;;;;16.00;37.30;;;;;;5022967;28;19929;-66
2023/01/22 01:20:02;;;;;;;;;;;15.90;37.20;;;;;;5030302;28;19922;-69
2023/01/22 01:22:27;;;;;;;;;;;15.90;37.30;;;;;;5026728;28;20239;-71
2023/01/22 01:24:53;;;;;;;;;;;15.90;37.30;;;;;;5030799;28;19935;-67
2023/01/22 01:27:18;;;;;;;;;;;15.80;37.40;;;;;;5019992;28;20003;-67
2023/01/22 01:29:44;;;;;;;;;;;15.70;37.40;;;;;;5043636;28;19925;-67
2023/01/22 01:32:09;;;;;;;;;;;15.70;37.50;;;;;;5029763;28;19921;-67
2023/01/22 01:34:35;;;;;;;;;;;15.60;37.60;;;;;;5045100;28;19925;-67
2023/01/22 01:37:00;;;;;;;;;;;15.50;37.70;;;;;;5030246;28;19971;-67
2023/01/22 01:39:26;;;;;;;;;;;15.40;37.80;;;;;;5027150;28;19933;-67
2023/01/22 01:41:51;;;;;;;;;;;15.40;38.00;;;;;;5025749;28;19928;-67
2023/01/22 01:44:18;;;;;;;;;;;15.30;38.00;;;;;;5027127;28;19932;-68
2023/01/22 01:46:50;;;;;;;;;;;15.20;38.10;;;;;;5027436;28;19921;-67
2023/01/22 01:49:18;;;;;;;;;;;15.20;38.20;;;;;;5026410;28;20003;-68
2023/01/22 01:51:44;;;;;;;;;;;15.10;38.30;;;;;;5025687;28;19921;-67
2023/01/22 01:54:10;;;;;;;;;;;15.00;38.40;;;;;;5029148;28;19928;-67
2023/01/22 01:56:38;;;;;;;;;;;15.00;38.50;;;;;;5038469;28;19941;-69
2023/01/22 01:59:07;;;;;;;;;;;15.00;38.60;;;;;;5030890;28;20318;-67
2023/01/22 02:01:33;;;;;;;;;;;15.00;38.70;;;;;;5029644;28;20532;-67
2023/01/22 02:03:59;;;;;;;;;;;14.90;38.70;;;;;;5050147;28;19920;-66
2023/01/22 02:06:24;;;;;;;;;;;14.80;38.80;;;;;;5034840;28;20561;-67
2023/01/22 02:08:53;;;;;;;;;;;14.80;38.80;;;;;;5048919;28;19924;-70
2023/01/22 02:11:20;;;;;;;;;;;14.80;38.80;;;;;;5050415;28;19928;-67
2023/01/22 02:13:52;;;;;;;;;;;14.80;38.90;;;;;;5033466;28;19921;-68
2023/01/22 02:16:18;;;;;;;;;;;14.70;38.90;;;;;;5046815;28;19927;-70
2023/01/22 02:18:43;;;;;;;;;;;14.70;39.00;;;;;;5047764;28;20358;-68
2023/01/22 02:21:29;;;;;;;;;;;14.70;39.10;;;;;;5055398;28;19920;-68
2023/01/22 02:23:54;;;;;;;;;;;14.70;39.20;;;;;;5032997;28;19921;-67
2023/01/22 02:26:20;;;;;;;;;;;14.60;39.10;;;;;;5036199;28;19928;-69
2023/01/22 02:28:45;;;;;;;;;;;14.60;39.10;;;;;;5035873;28;19921;-69
2023/01/22 02:31:11;;;;;;;;;;;14.60;39.20;;;;;;5034494;28;19969;-69
2023/01/22 02:33:36;;;;;;;;;;;14.60;39.20;;;;;;5053566;28;20335;-67
2023/01/22 02:36:02;;;;;;;;;;;14.60;39.20;;;;;;5037007;28;19967;-69
2023/01/22 02:38:27;;;;;;;;;;;14.60;39.20;;;;;;5053932;28;19932;-72
2023/01/22 02:40:53;;;;;;;;;;;14.60;39.20;;;;;;5034487;28;19928;-69
2023/01/22 02:43:19;;;;;;;;;;;14.60;39.30;;;;;;5033899;28;20359;-70
2023/01/22 02:45:44;;;;;;;;;;;14.60;39.30;;;;;;5043330;28;20045;-71
2023/01/22 02:48:10;;;;;;;;;;;14.60;39.30;;;;;;5035462;28;19921;-71
2023/01/22 02:50:38;;;;;;;;;;;14.50;39.20;;;;;;5035439;28;20166;-70
2023/01/22 02:53:04;;;;;;;;;;;14.50;39.30;;;;;;5042987;28;20376;-71
2023/01/22 02:55:29;;;;;;;;;;;14.50;39.30;;;;;;5052804;28;19948;-70
2023/01/22 02:57:58;;;;;;;;;;;14.60;39.30;;;;;;5052816;28;19928;-68
2023/01/22 03:00:23;;;;;;;;;;;14.70;39.20;;;;;;5036785;28;19920;-70
2023/01/22 03:02:49;;;;;;;;;;;14.90;39.20;;;;;;5034301;28;20415;-69
2023/01/22 03:05:14;;;;;;;;;;;15.10;38.90;;;;;;5051757;28;20268;-69
2023/01/22 03:07:41;;;;;;;;;;;15.40;38.50;;;;;;5050630;28;19968;-69
2023/01/22 03:10:09;;;;;;;;;;;15.80;38.00;;;;;;5035202;28;19924;-71
2023/01/22 03:21:22;;;;;;;;;;;17.80;35.50;;;;;;5050764;28;19921;-72
2023/01/22 03:23:36;;;;;;;;;;;18.30;34.70;;;;;;5051221;28;19929;-72
2023/01/22 03:26:02;;;;;;;;;;;18.70;34.20;;;;;;5041244;28;19970;-72
2023/01/22 03:28:28;;;;;;;;;;;19.10;33.70;;;;;;5034037;28;19931;-70
2023/01/22 03:30:54;;;;;;;;;;;19.50;33.40;;;;;;5026710;28;19967;-71
2023/01/22 03:33:19;;;;;;;;;;;19.80;32.80;;;;;;5053131;28;20009;-69
2023/01/22 03:35:45;;;;;;;;;;;20.00;32.40;;;;;;5042460;28;20034;-69
2023/01/22 03:38:10;;;;;;;;;;;20.20;32.00;;;;;;5052531;28;19932;-69
2023/01/22 03:40:36;;;;;;;;;;;20.30;31.90;;;;;;5051879;28;19925;-69
2023/01/22 03:43:01;;;;;;;;;;;20.40;31.70;;;;;;5026840;28;19920;-71
2023/01/22 03:45:27;;;;;;;;;;;20.40;31.80;;;;;;5035506;28;19920;-71
2023/01/22 03:47:53;;;;;;;;;;;20.40;31.80;;;;;;5034136;28;19921;-69
2023/01/22 03:50:18;;;;;;;;;;;20.30;31.80;;;;;;5032743;28;20343;-69
2023/01/22 03:52:44;;;;;;;;;;;20.20;31.80;;;;;;5034804;28;19928;-69
2023/01/22 03:55:09;;;;;;;;;;;20.10;31.90;;;;;;5053063;28;20015;-69
2023/01/22 03:57:35;;;;;;;;;;;20.00;32.00;;;;;;5051203;28;20380;-70
2023/01/22 04:00:02;;;;;;;;;;;19.80;32.10;;;;;;5048220;28;19932;-72
2023/01/22 04:02:28;;;;;;;;;;;19.70;32.10;;;;;;5034726;28;19925;-71
2023/01/22 04:04:53;;;;;;;;;;;19.60;32.30;;;;;;5031646;28;20338;-69
2023/01/22 04:07:18;;;;;;;;;;;19.40;32.40;;;;;;5033799;28;19928;-69
2023/01/22 04:09:44;;;;;;;;;;;19.30;32.60;;;;;;5030247;28;19925;-69
2023/01/22 04:12:10;;;;;;;;;;;19.10;32.70;;;;;;5052181;28;19924;-72
2023/01/22 04:14:35;;;;;;;;;;;19.00;32.90;;;;;;5048267;28;19999;-71
2023/01/22 04:17:01;;;;;;;;;;;18.90;33.10;;;;;;5046525;28;20359;-69
2023/01/22 04:19:26;;;;;;;;;;;18.80;33.20;;;;;;5052062;28;19924;-72
2023/01/22 04:21:52;;;;;;;;;;;18.70;33.40;;;;;;5032713;28;19921;-70
2023/01/22 04:24:17;;;;;;;;;;;18.50;33.50;;;;;;5031701;28;19921;-69
2023/01/22 04:26:43;;;;;;;;;;;18.40;33.60;;;;;;5033456;28;19929;-71
2023/01/22 04:29:08;;;;;;;;;;;18.20;33.70;;;;;;5022825;28;19979;-69
2023/01/22 04:31:34;;;;;;;;;;;18.10;33.80;;;;;;5050675;28;19924;-71
2023/01/22 04:33:59;;;;;;;;;;;17.90;34.00;;;;;;5051215;28;20365;-69
2023/01/22 04:36:25;;;;;;;;;;;17.90;34.20;;;;;;5049487;28;19924;-71
2023/01/22 04:38:50;;;;;;;;;;;17.70;34.30;;;;;;5033737;28;20330;-69
2023/01/22 04:41:16;;;;;;;;;;;17.60;34.40;;;;;;5031451;28;20020;-71
2023/01/22 04:43:42;;;;;;;;;;;17.50;34.60;;;;;;5047195;28;19925;-69
2023/01/22 04:46:07;;;;;;;;;;;17.40;34.70;;;;;;5051784;28;20273;-72
2023/01/22 04:48:33;;;;;;;;;;;17.30;34.80;;;;;;5032886;28;19921;-69
2023/01/22 04:50:58;;;;;;;;;;;17.20;34.90;;;;;;5050837;28;20352;-70
2023/01/22 04:53:24;;;;;;;;;;;17.20;35.10;;;;;;5035430;28;20439;-69
2023/01/22 04:55:49;;;;;;;;;;;17.10;35.10;;;;;;5049240;28;19970;-69
2023/01/22 04:58:15;;;;;;;;;;;17.00;35.20;;;;;;5049325;28;20427;-69
2023/01/22 05:00:40;;;;;;;;;;;16.90;35.30;;;;;;5050210;28;20360;-70
2023/01/22 05:03:06;;;;;;;;;;;16.90;35.40;;;;;;5034876;28;19928;-69
2023/01/22 05:05:34;;;;;;;;;;;16.80;35.60;;;;;;5032664;28;19921;-71
2023/01/22 05:08:00;;;;;;;;;;;16.70;35.60;;;;;;5045937;28;19927;-69
2023/01/22 05:10:26;;;;;;;;;;;16.60;35.60;;;;;;5050487;28;20015;-69
2023/01/22 05:12:52;;;;;;;;;;;16.60;35.70;;;;;;5045243;28;20015;-69
2023/01/22 05:15:17;;;;;;;;;;;16.50;35.80;;;;;;5023825;28;19932;-69
2023/01/22 05:17:43;;;;;;;;;;;16.40;35.80;;;;;;5045331;28;19924;-71
2023/01/22 05:20:11;;;;;;;;;;;16.40;35.90;;;;;;5040089;28;19921;-70
2023/01/22 05:22:37;;;;;;;;;;;16.30;36.00;;;;;;5049647;28;19932;-71
2023/01/22 05:25:05;;;;;;;;;;;16.30;36.10;;;;;;5049784;28;19925;-70
2023/01/22 05:27:31;;;;;;;;;;;16.20;36.20;;;;;;5036493;28;19962;-69
2023/01/22 05:29:56;;;;;;;;;;;16.10;36.20;;;;;;5032082;28;20015;-71
2023/01/22 05:32:22;;;;;;;;;;;16.10;36.30;;;;;;5049929;28;20291;-69
2023/01/22 05:34:47;;;;;;;;;;;16.00;36.30;;;;;;5049014;28;19995;-69
2023/01/22 05:37:13;;;;;;;;;;;15.90;36.50;;;;;;5051143;28;20363;-69
2023/01/22 05:39:38;;;;;;;;;;;15.90;36.60;;;;;;5049921;28;19924;-69
2023/01/22 05:42:04;;;;;;;;;;;15.80;36.60;;;;;;5027122;28;19920;-69
2023/01/22 05:44:29;;;;;;;;;;;15.80;36.70;;;;;;5030852;28;19928;-69
2023/01/22 05:46:55;;;;;;;;;;;15.70;36.80;;;;;;5049083;28;19975;-69
2023/01/22 05:49:20;;;;;;;;;;;15.70;36.90;;;;;;5044973;28;20024;-69
2023/01/22 05:51:46;;;;;;;;;;;15.60;37.00;;;;;;5029532;28;19975;-69
2023/01/22 05:54:11;;;;;;;;;;;15.50;37.00;;;;;;5033476;28;20248;-69
2023/01/22 05:56:37;;;;;;;;;;;15.50;37.10;;;;;;5032657;28;19970;-70
2023/01/22 05:59:03;;;;;;;;;;;15.40;37.20;;;;;;5047312;28;19929;-69
2023/01/22 06:01:28;;;;;;;;;;;15.40;37.50;;;;;;5049184;28;20364;-69
2023/01/22 06:03:54;;;;;;;;;;;15.30;37.50;;;;;;5049904;28;19927;-70
2023/01/22 06:06:19;;;;;;;;;;;15.20;37.60;;;;;;5049104;28;19928;-70
2023/01/22 06:08:46;;;;;;;;;;;15.20;37.70;;;;;;5052343;28;19924;-69
2023/01/22 06:11:12;;;;;;;;;;;15.10;37.80;;;;;;5040413;28;19921;-69
2023/01/22 06:13:38;;;;;;;;;;;15.10;37.90;;;;;;5025258;28;19963;-69
2023/01/22 06:16:04;;;;;;;;;;;15.00;38.00;;;;;;5044880;28;20337;-69
2023/01/22 06:18:30;;;;;;;;;;;14.90;38.00;;;;;;5033567;28;19925;-69
2023/01/22 06:20:59;;;;;;;;;;;14.90;38.10;;;;;;5042592;28;19921;-69
2023/01/22 06:23:26;;;;;;;;;;;14.90;38.20;;;;;;5049837;28;19925;-69
2023/01/22 06:25:52;;;;;;;;;;;14.90;38.30;;;;;;5049467;28;20380;-69
2023/01/22 06:28:18;;;;;;;;;;;14.80;38.30;;;;;;5030562;28;20304;-69
2023/01/22 06:30:47;;;;;;;;;;;14.80;38.30;;;;;;5032200;28;20293;-70
2023/01/22 06:33:12;;;;;;;;;;;14.80;39.10;;;;;;5037311;28;19921;-69
2023/01/22 06:35:38;;;;;;;;;;;15.00;38.30;;;;;;5033915;28;19920;-69
2023/01/22 06:38:03;;;;;;;;;;;15.20;38.10;;;;;;5049397;28;19929;-69
2023/01/22 06:40:29;;;;;;;;;;;15.40;38.00;;;;;;5047405;28;20391;-69
2023/01/22 06:42:56;;;;;;;;;;;15.70;37.70;;;;;;5048099;28;19921;-69
2023/01/22 06:45:22;;;;;;;;;;;16.00;37.30;;;;;;5032677;28;19921;-69
2023/01/22 06:47:48;;;;;;;;;;;16.40;36.80;;;;;;5028302;28;19928;-69
2023/01/22 06:50:13;;;;;;;;;;;16.80;36.30;;;;;;5043341;28;19921;-69
2023/01/22 06:52:39;;;;;;;;;;;17.30;35.60;;;;;;5049639;28;20296;-70
2023/01/22 06:55:05;;;;;;;;;;;17.90;35.20;;;;;;5048504;28;19921;-72
2023/01/22 06:57:30;;;;;;;;;;;18.40;34.60;;;;;;5029664;28;19925;-71
2023/01/22 06:59:56;;;;;;;;;;;18.90;33.70;;;;;;5048432;28;19925;-74
2023/01/22 07:02:21;;;;;;;;;;;19.40;33.40;;;;;;5048059;28;19961;-72
2023/01/22 07:04:47;;;;;;;;;;;19.80;32.70;;;;;;5052072;28;19968;-69
2023/01/22 07:07:13;;;;;;;;;;;20.20;32.20;;;;;;5051653;28;19921;-69
2023/01/22 07:09:38;;;;;;;;;;;20.50;31.80;;;;;;5050922;28;20011;-73
2023/01/22 07:12:04;;;;;;;;;;;20.80;31.40;;;;;;5047882;28;19933;-74
2023/01/22 07:14:30;;;;;;;;;;;20.90;31.10;;;;;;5035262;28;20287;-72
2023/01/22 07:16:55;;;;;;;;;;;21.00;31.00;;;;;;5029668;28;19965;-73
2023/01/22 07:19:21;;;;;;;;;;;21.10;31.10;;;;;;5053374;28;19921;-70
2023/01/22 07:21:47;;;;;;;;;;;21.10;30.80;;;;;;5033223;28;19921;-72
2023/01/22 07:24:12;;;;;;;;;;;21.00;30.80;;;;;;5033155;28;20427;-73
2023/01/22 07:26:38;;;;;;;;;;;21.00;30.80;;;;;;5051066;28;19952;-71
2023/01/22 07:29:04;;;;;;;;;;;20.90;30.90;;;;;;5052262;28;20383;-72
2023/01/22 07:31:30;;;;;;;;;;;20.80;31.00;;;;;;5049224;28;20264;-72
2023/01/22 07:33:55;;;;;;;;;;;20.60;31.00;;;;;;5034499;28;19954;-73
2023/01/22 07:36:21;;;;;;;;;;;20.50;31.30;;;;;;5033628;28;19928;-69
2023/01/22 07:38:49;;;;;;;;;;;20.40;31.50;;;;;;5052459;28;19978;-71
2023/01/22 07:41:15;;;;;;;;;;;20.30;31.60;;;;;;5051787;28;20490;-70
2023/01/22 07:43:40;;;;;;;;;;;20.10;31.70;;;;;;5043836;28;20000;-70
2023/01/22 07:46:09;;;;;;;;;;;20.00;32.10;;;;;;5049770;28;19945;-69
2023/01/22 07:48:36;;;;;;;;;;;19.80;32.20;;;;;;5047362;28;19928;-67
2023/01/22 07:51:03;;;;;;;;;;;19.60;32.20;;;;;;5049932;28;19921;-69
2023/01/22 07:53:28;;;;;;;;;;;19.50;32.40;;;;;;5034005;28;19921;-69
2023/01/22 07:55:54;;;;;;;;;;;19.40;32.60;;;;;;5034900;28;20303;-67
2023/01/22 07:58:20;;;;;;;;;;;19.30;32.70;;;;;;5029613;28;20675;-69
2023/01/22 08:00:45;;;;;;;;;;;19.10;32.90;;;;;;5038935;28;20324;-69
2023/01/22 08:03:13;;;;;;;;;;;19.00;33.00;;;;;;5044885;28;19966;-70
2023/01/22 08:05:39;;;;;;;;;;;18.80;33.10;;;;;;5031597;28;20010;-67
2023/01/22 08:08:05;;;;;;;;;;;18.70;33.30;;;;;;5029181;28;19964;-69
2023/01/22 08:10:31;;;;;;;;;;;18.60;33.50;;;;;;5030940;28;19928;-68
2023/01/22 08:12:56;;;;;;;;;;;18.40;33.50;;;;;;5025808;28;19925;-69
2023/01/22 08:15:22;;;;;;;;;;;18.30;33.80;;;;;;5030761;28;20324;-70
2023/01/22 08:17:49;;;;;;;;;;;18.20;33.90;;;;;;5028636;28;20381;-68
2023/01/22 08:20:15;;;;;;;;;;;18.10;34.00;;;;;;5029261;28;19921;-70
2023/01/22 08:22:40;;;;;;;;;;;18.00;34.10;;;;;;5027367;28;19929;-70
2023/01/22 08:25:06;;;;;;;;;;;17.90;34.30;;;;;;5030871;28;19925;-70
2023/01/22 08:27:33;;;;;;;;;;;17.80;34.40;;;;;;5030993;28;20015;-69
2023/01/22 08:29:59;;;;;;;;;;;17.70;34.60;;;;;;5030937;28;19922;-70
2023/01/22 08:32:25;;;;;;;;;;;17.70;34.70;;;;;;5029793;28;19975;-69
2023/01/22 08:34:53;;;;;;;;;;;17.60;34.80;;;;;;5029431;28;20288;-69
2023/01/22 08:37:20;;;;;;;;;;;17.60;34.90;;;;;;5033195;28;19932;-68
2023/01/22 08:39:45;;;;;;;;;;;17.50;35.00;;;;;;5030631;28;19929;-69
2023/01/22 08:42:11;;;;;;;;;;;17.40;35.10;;;;;;5024412;28;20322;-70
2023/01/22 08:44:36;;;;;;;;;;;17.20;35.00;;;;;;5028428;28;19947;-70
2023/01/22 08:47:02;;;;;;;;;;;17.20;35.20;;;;;;5020349;28;19928;-70
2023/01/22 08:49:29;;;;;;;;;;;17.20;35.30;;;;;;5031118;28;19928;-70
2023/01/22 08:51:58;;;;;;;;;;;17.10;35.40;;;;;;5029075;28;19944;-70
2023/01/22 08:54:26;;;;;;;;;;;17.00;35.50;;;;;;5029357;28;20254;-69
2023/01/22 08:56:52;;;;;;;;;;;17.00;35.60;;;;;;5034508;28;19967;-73
2023/01/22 08:59:18;;;;;;;;;;;16.90;35.70;;;;;;5050024;28;19975;-71
2023/01/22 09:01:43;;;;;;;;;;;16.80;35.80;;;;;;5031034;28;20426;-71
2023/01/22 09:04:12;;;;;;;;;;;16.80;35.80;;;;;;5050384;28;19925;-70
2023/01/22 09:06:38;;;;;;;;;;;16.70;35.90;;;;;;5033445;28;20016;-71
2023/01/22 09:09:05;;;;;;;;;;;16.70;36.00;;;;;;5051513;28;20003;-70
2023/01/22 09:11:30;;;;;;;;;;;16.60;36.10;;;;;;5031959;28;19927;-69
2023/01/22 09:13:56;;;;;;;;;;;16.60;36.20;;;;;;5031929;28;20015;-70
2023/01/22 09:16:22;;;;;;;;;;;16.50;36.20;;;;;;5041451;28;19921;-72
2023/01/22 09:18:48;;;;;;;;;;;16.40;36.30;;;;;;5051279;28;19927;-71
2023/01/22 09:21:14;;;;;;;;;;;16.40;36.40;;;;;;5049887;28;19927;-71
2023/01/22 09:23:42;;;;;;;;;;;16.30;36.40;;;;;;5032404;28;19928;-71
2023/01/22 09:26:08;;;;;;;;;;;16.40;36.60;;;;;;5051227;28;19920;-71
2023/01/22 09:28:34;;;;;;;;;;;16.20;36.70;;;;;;5042776;28;19931;-71
2023/01/22 09:30:59;;;;;;;;;;;16.10;36.70;;;;;;5044705;28;19920;-71
2023/01/22 09:33:25;;;;;;;;;;;16.10;36.80;;;;;;5050472;28;19927;-72
2023/01/22 09:35:50;;;;;;;;;;;16.10;36.90;;;;;;5051340;28;19974;-69
2023/01/22 09:38:17;;;;;;;;;;;16.00;37.00;;;;;;5032555;28;20014;-71
2023/01/22 09:43:44;;;;;;;;;;;15.90;37.20;;;;;;5098214;27;20367;-70
2023/01/22 09:46:15;;;;;;;;;;;15.80;37.30;;;;;;5102360;28;19971;-70
2023/01/22 09:48:43;;;;;;;;;;;15.70;37.40;;;;;;5094186;28;19989;-68
2023/01/22 09:51:12;;;;;;;;;;;15.70;37.50;;;;;;5128682;27;20039;-69
2023/01/22 09:53:38;;;;;;;;;;;15.60;37.50;;;;;;5099603;28;19925;-68
2023/01/22 09:56:04;;;;;;;;;;;15.60;37.70;;;;;;5130744;27;19920;-68
2023/01/22 09:58:33;;;;;;;;;;;15.60;37.80;;;;;;5095350;28;19921;-70
2023/01/22 10:00:59;;;;;;;;;;;15.50;37.90;;;;;;5128339;27;19989;-70
2023/01/22 10:03:34;;;;;;;;;;;15.40;38.00;;;;;;5095647;28;19920;-67
2023/01/22 10:08:44;;;;;;;;;;;15.30;38.20;;;;;;5096216;27;1864372;-67
2023/01/22 10:11:09;;;;;;;;;;;15.30;38.20;;;;;;5145103;27;19945;-67
2023/01/22 10:13:36;;;;;;;;;;;15.20;38.30;;;;;;5142550;27;19940;-68
2023/01/22 10:16:02;;;;;;;;;;;15.20;38.40;;;;;;5157717;27;19923;-68
2023/01/22 10:18:32;;;;;;;;;;;15.20;38.40;;;;;;5139184;27;19976;-67
2023/01/22 10:21:01;;;;;;;;;;;15.20;38.40;;;;;;5140511;27;19919;-70
2023/01/22 10:23:27;;;;;;;;;;;15.20;38.50;;;;;;5145458;27;19927;-68
2023/01/22 10:25:58;;;;;;;;;;;15.10;38.50;;;;;;5138740;27;19919;-69
2023/01/22 10:28:27;;;;;;;;;;;15.10;38.70;;;;;;5142368;27;20491;-68
2023/01/22 10:30:57;;;;;;;;;;;15.10;38.60;;;;;;5145224;27;19951;-69
2023/01/22 10:33:26;;;;;;;;;;;15.10;38.60;;;;;;5141446;27;19923;-69
2023/01/22 10:35:53;;;;;;;;;;;15.10;38.70;;;;;;5138599;27;20294;-70
2023/01/22 10:38:21;;;;;;;;;;;15.00;38.70;;;;;;5156462;27;19976;-68
2023/01/22 10:40:50;;;;;;;;;;;15.00;38.80;;;;;;5146379;27;19919;-69
2023/01/22 10:43:16;;;;;;;;;;;15.00;38.90;;;;;;5160633;27;19968;-70
2023/01/22 10:46:03;;;;;;;;;;;15.00;39.00;;;;;;5156694;27;20370;-69
2023/01/22 10:48:29;;;;;;;;;;;15.00;39.00;;;;;;5142321;27;19970;-69
2023/01/22 10:51:14;;;;;;;;;;;14.90;38.90;;;;;;5140964;27;19958;-69
2023/01/22 10:53:48;;;;;;;;;;;14.90;39.00;;;;;;5158156;27;19984;-68
2023/01/22 10:56:23;;;;;;;;;;;14.90;39.00;;;;;;5156334;27;19926;-69
2023/01/22 10:58:53;;;;;;;;;;;14.90;39.00;;;;;;5144637;27;19919;-69
2023/01/22 11:01:30;;;;;;;;;;;14.90;39.00;;;;;;5157954;27;19925;-70
2023/01/22 11:03:56;;;;;;;;;;;14.90;39.10;;;;;;5145060;27;19919;-69
2023/01/22 11:06:25;;;;;;;;;;;14.90;39.20;;;;;;5156101;27;20338;-69
2023/01/22 11:08:54;;;;;;;;;;;14.80;39.00;;;;;;5143164;27;20278;-69
2023/01/22 11:11:23;;;;;;;;;;;14.90;39.10;;;;;;5142077;27;20281;-69
2023/01/22 11:14:11;;;;;;;;;;;14.80;39.20;;;;;;5156079;27;20010;-68
2023/01/22 11:16:38;;;;;;;;;;;14.80;39.20;;;;;;5141232;27;19921;-69
2023/01/22 11:19:05;;;;;;;;;;;14.80;39.10;;;;;;5131595;27;19919;-69
2023/01/22 11:21:34;;;;;;;;;;;14.90;39.10;;;;;;5140907;27;20111;-69
2023/01/22 11:24:18;;;;;;;;;;;15.10;39.00;;;;;;5140444;27;19977;-68
2023/01/22 11:29:47;;;;;;;;;;;15.60;38.50;;;;;;5095907;27;19923;-69
2023/01/22 11:32:32;;;;;;;;;;;16.00;38.00;;;;;;5101146;28;20054;-69
2023/01/22 11:38:01;;;;;;;;;;;17.00;37.00;;;;;;5117246;27;19924;-68
2023/01/22 11:40:28;;;;;;;;;;;17.60;36.10;;;;;;5100308;28;20313;-71
2023/01/22 11:43:17;;;;;;;;;;;18.20;35.50;;;;;;5108040;28;19932;-70
2023/01/22 11:45:51;;;;;;;;;;;18.70;34.70;;;;;;5138523;27;19924;-71
2023/01/22 11:51:16;;;;;;;;;;;19.70;33.70;;;;;;5097968;27;19918;-69
2023/01/22 11:53:48;;;;;;;;;;;20.20;32.90;;;;;;5053183;28;20307;-68
2023/01/22 12:04:33;;;;;;;;;;;21.00;31.50;;;;;;5096491;27;19912;-70
2023/01/22 12:09:52;;;;;;;;;;;20.90;31.50;;;;;;5084979;27;19913;-69
2023/01/22 12:12:22;;;;;;;;;;;20.90;31.50;;;;;;5081853;28;19921;-70
2023/01/22 12:17:34;;;;;;;;;;;20.70;31.80;;;;;;5053045;27;1868597;-70
2023/01/22 12:20:05;;;;;;;;;;;20.50;32.20;;;;;;5114172;28;19961;-70
2023/01/22 12:25:34;;;;;;;;;;;20.30;32.10;;;;;;5096538;27;19916;-68
2023/01/22 12:28:04;;;;;;;;;;;20.10;32.30;;;;;;5098572;28;19985;-69
2023/01/22 12:30:42;;;;;;;;;;;20.00;32.50;;;;;;5094101;28;20364;-69
2023/01/22 12:33:11;;;;;;;;;;;19.90;32.60;;;;;;5093853;28;19942;-69
2023/01/22 12:35:36;;;;;;;;;;;19.70;32.60;;;;;;5096441;28;19931;-69
2023/01/22 12:38:21;;;;;;;;;;;19.60;32.80;;;;;;5098706;28;19920;-69
2023/01/22 12:41:08;;;;;;;;;;;19.50;33.00;;;;;;5091087;28;20389;-70
2023/01/22 12:43:38;;;;;;;;;;;19.30;33.20;;;;;;5097155;28;19934;-71
2023/01/22 12:48:49;;;;;;;;;;;19.00;33.50;;;;;;5096208;27;19921;-68
2023/01/22 12:51:37;;;;;;;;;;;18.80;33.60;;;;;;5085182;28;20379;-69
2023/01/22 12:59:56;;;;;;;;;;;18.50;34.20;;;;;;5068924;28;19916;-72
2023/01/22 13:05:23;;;;;;;;;;;18.20;34.50;;;;;;5075789;28;19913;-69
2023/01/22 13:08:00;;;;;;;;;;;18.20;34.60;;;;;;5061960;28;19984;-69
2023/01/22 13:10:28;;;;;;;;;;;18.00;34.80;;;;;;5067120;28;19924;-68
2023/01/22 13:12:56;;;;;;;;;;;17.90;34.90;;;;;;5066572;28;19948;-69
2023/01/22 13:15:25;;;;;;;;;;;17.90;35.00;;;;;;5066307;28;19924;-69
2023/01/22 13:20:47;;;;;;;;;;;17.70;35.20;;;;;;5083994;27;19938;-70
2023/01/22 13:23:13;;;;;;;;;;;17.70;35.40;;;;;;5114758;28;19991;-70
2023/01/22 13:25:39;;;;;;;;;;;17.50;35.40;;;;;;5113726;28;19926;-69
2023/01/22 13:28:08;;;;;;;;;;;17.50;35.50;;;;;;5079690;28;19967;-69
2023/01/22 13:30:34;;;;;;;;;;;17.40;35.60;;;;;;5115098;28;19920;-69
2023/01/22 13:33:03;;;;;;;;;;;17.30;35.70;;;;;;5081890;28;20398;-69
2023/01/22 13:35:33;;;;;;;;;;;17.10;35.70;;;;;;5081123;28;19921;-68
2023/01/22 13:37:59;;;;;;;;;;;17.20;35.90;;;;;;5082514;28;20020;-68
2023/01/22 13:40:26;;;;;;;;;;;17.10;36.00;;;;;;5081475;28;20011;-70
2023/01/22 13:42:52;;;;;;;;;;;17.10;36.10;;;;;;5081088;28;19971;-70
2023/01/22 13:45:20;;;;;;;;;;;17.00;36.10;;;;;;5080393;28;20396;-69
2023/01/22 13:47:46;;;;;;;;;;;17.00;36.40;;;;;;5080959;28;20379;-68
2023/01/22 13:50:28;;;;;;;;;;;16.90;36.40;;;;;;5083776;28;19931;-69
2023/01/22 13:52:56;;;;;;;;;;;16.80;36.40;;;;;;5079345;28;20466;-70
2023/01/22 13:55:23;;;;;;;;;;;16.80;37.30;;;;;;5080414;28;19953;-71
2023/01/22 13:57:50;;;;;;;;;;;16.70;36.50;;;;;;5081116;28;20275;-71
2023/01/22 14:03:17;;;;;;;;;;;16.60;36.70;;;;;;5099123;27;19926;-69
2023/01/22 14:05:43;;;;;;;;;;;16.60;36.80;;;;;;5094941;28;20337;-70
2023/01/22 14:08:09;;;;;;;;;;;16.50;36.90;;;;;;5093804;28;19921;-70
2023/01/22 14:10:35;;;;;;;;;;;16.40;37.00;;;;;;5098884;28;19920;-70
2023/01/22 14:13:02;;;;;;;;;;;16.40;37.10;;;;;;5094840;28;19920;-69
2023/01/22 14:15:28;;;;;;;;;;;16.30;37.20;;;;;;5131312;27;20367;-70
2023/01/22 14:18:04;;;;;;;;;;;16.30;37.40;;;;;;5091992;28;20008;-70
2023/01/22 14:20:30;;;;;;;;;;;16.20;37.40;;;;;;5097177;28;19927;-71
2023/01/22 14:22:58;;;;;;;;;;;16.10;37.40;;;;;;5094103;28;20294;-70
2023/01/22 14:25:24;;;;;;;;;;;16.20;37.60;;;;;;5099079;28;19920;-70
2023/01/22 14:27:49;;;;;;;;;;;16.00;37.60;;;;;;5098068;28;19931;-70
2023/01/22 14:30:16;;;;;;;;;;;16.00;37.80;;;;;;5093827;28;19968;-70
2023/01/22 14:32:42;;;;;;;;;;;15.90;37.90;;;;;;5132564;27;19921;-70
2023/01/22 14:37:55;;;;;;;;;;;15.80;38.00;;;;;;5096243;27;19923;-70
2023/01/22 14:40:21;;;;;;;;;;;15.80;38.10;;;;;;5095675;28;19920;-70
2023/01/22 14:42:47;;;;;;;;;;;15.70;38.30;;;;;;5098363;28;19928;-69
2023/01/22 14:45:14;;;;;;;;;;;15.70;38.40;;;;;;5093712;28;20018;-69
2023/01/22 14:47:39;;;;;;;;;;;15.70;38.50;;;;;;5126480;27;19920;-69
2023/01/22 14:50:08;;;;;;;;;;;15.60;38.60;;;;;;5096128;28;19920;-69
2023/01/22 14:52:35;;;;;;;;;;;15.60;38.60;;;;;;5095203;28;20015;-69
2023/01/22 14:55:01;;;;;;;;;;;15.50;38.70;;;;;;5125402;27;19927;-68
2023/01/22 14:57:26;;;;;;;;;;;15.50;38.80;;;;;;5093745;28;19928;-68
2023/01/22 14:59:52;;;;;;;;;;;15.50;38.80;;;;;;5095941;28;19927;-69
2023/01/22 15:02:17;;;;;;;;;;;15.40;38.80;;;;;;5091719;28;19927;-69
2023/01/22 15:04:43;;;;;;;;;;;15.40;38.90;;;;;;5096680;28;19924;-69
2023/01/22 15:07:09;;;;;;;;;;;15.40;39.00;;;;;;5094730;28;19927;-68
2023/01/22 15:09:35;;;;;;;;;;;15.40;39.10;;;;;;5093957;28;19924;-69
2023/01/22 15:12:01;;;;;;;;;;;15.30;39.10;;;;;;5093865;28;19920;-70
2023/01/22 15:14:26;;;;;;;;;;;15.30;39.20;;;;;;5097876;28;19924;-69
2023/01/22 15:16:52;;;;;;;;;;;15.30;39.20;;;;;;5094101;28;20023;-70
2023/01/22 15:19:17;;;;;;;;;;;15.30;39.30;;;;;;5091675;28;19920;-70